Time;durP1;ratioP1;P1;durP2;ratioP2;P2;SDS_P1;SDS_P2;PMS_P1;PMS_P2;Temp;Humidity;BMP_temperature;BMP_pressure;BME280_temperature;BME280_humidity;BME280_pressure;Samples;Min_cycle;Max_cycle;Signal;HPM_P1;HPM_P2
2022/09/16 00:00:01;;;;;;;0.65;0.60;;;11.10;99.90;;;;;;4935593;29;20051;-77
2022/09/16 00:02:27;;;;;;;0.57;0.52;;;11.10;99.90;;;;;;4897618;29;20561;-77
2022/09/16 00:04:53;;;;;;;1.05;0.57;;;11.10;99.90;;;;;;4913341;29;20147;-77
2022/09/16 00:07:19;;;;;;;1.00;0.60;;;11.10;99.90;;;;;;4899109;29;20376;-77
2022/09/16 00:09:44;;;;;;;1.90;0.80;;;11.10;99.90;;;;;;4919541;29;20090;-77
2022/09/16 00:12:10;;;;;;;3.15;0.63;;;11.10;99.90;;;;;;4931281;29;20495;-77
2022/09/16 00:14:36;;;;;;;1.88;0.70;;;11.10;99.90;;;;;;4905134;29;20075;-77
2022/09/16 00:17:01;;;;;;;1.55;0.68;;;11.10;99.90;;;;;;4909201;29;20040;-77
2022/09/16 00:19:27;;;;;;;0.95;0.60;;;11.10;99.90;;;;;;4935451;29;20047;-78
2022/09/16 00:21:52;;;;;;;0.57;0.50;;;11.20;99.90;;;;;;4919368;29;20040;-77
2022/09/16 00:24:18;;;;;;;1.55;0.60;;;11.20;99.90;;;;;;4909550;29;20047;-77
2022/09/16 00:26:44;;;;;;;0.75;0.50;;;11.20;99.90;;;;;;4895702;29;20103;-77
2022/09/16 00:29:09;;;;;;;2.22;0.60;;;11.20;99.90;;;;;;4918978;29;20176;-77
2022/09/16 00:31:35;;;;;;;1.75;0.55;;;11.20;99.90;;;;;;4934950;29;20095;-78
2022/09/16 00:34:01;;;;;;;2.85;0.60;;;11.20;99.90;;;;;;4927012;29;20063;-77
2022/09/16 00:36:27;;;;;;;0.60;0.60;;;11.30;99.90;;;;;;4898119;29;20047;-77
2022/09/16 00:38:54;;;;;;;1.52;0.60;;;11.30;99.90;;;;;;4912101;29;20064;-78
2022/09/16 00:41:26;;;;;;;0.70;0.43;;;11.30;99.90;;;;;;4899956;29;20131;-77
2022/09/16 00:44:01;;;;;;;1.27;0.50;;;11.30;99.90;;;;;;4883862;29;20056;-77
2022/09/16 00:46:46;;;;;;;0.73;0.50;;;11.40;99.90;;;;;;4899409;29;20668;-77
2022/09/16 00:49:29;;;;;;;0.60;0.35;;;11.40;99.90;;;;;;4892121;29;20040;-77
2022/09/16 00:52:00;;;;;;;1.03;0.50;;;11.40;99.90;;;;;;4934074;29;20043;-77
2022/09/16 00:54:28;;;;;;;0.68;0.40;;;11.40;99.90;;;;;;4922773;29;20044;-77
2022/09/16 00:56:56;;;;;;;2.47;0.40;;;11.40;99.90;;;;;;4884946;29;20087;-77
2022/09/16 00:59:30;;;;;;;1.08;0.45;;;11.40;99.90;;;;;;4913643;29;20036;-77
2022/09/16 01:01:59;;;;;;;1.98;0.65;;;11.40;99.90;;;;;;4926642;29;20129;-77
2022/09/16 01:04:35;;;;;;;2.42;0.60;;;11.40;99.90;;;;;;4924045;29;20055;-77
2022/09/16 01:07:01;;;;;;;1.02;0.40;;;11.30;99.90;;;;;;4899346;29;20044;-77
2022/09/16 01:09:28;;;;;;;1.10;0.45;;;11.40;99.90;;;;;;4914250;29;20042;-77
2022/09/16 01:11:54;;;;;;;1.48;0.40;;;11.40;99.90;;;;;;4907722;29;20050;-77
2022/09/16 01:17:20;;;;;;;0.45;0.43;;;11.40;99.90;;;;;;4913875;29;20187;-77
2022/09/16 01:20:04;;;;;;;1.00;0.70;;;11.40;99.90;;;;;;4893851;29;20102;-77
2022/09/16 01:22:51;;;;;;;2.60;0.43;;;11.40;99.90;;;;;;4930799;29;20149;-78
2022/09/16 01:25:48;;;;;;;1.00;0.50;;;11.30;99.90;;;;;;4901633;29;20044;-78
2022/09/16 01:28:51;;;;;;;0.63;0.40;;;11.30;99.90;;;;;;4901195;29;20095;-78
2022/09/16 01:31:48;;;;;;;1.95;0.70;;;11.40;99.90;;;;;;4908244;29;20046;-78
2022/09/16 01:34:35;;;;;;;0.65;0.60;;;11.40;99.90;;;;;;4909884;29;20044;-78
2022/09/16 01:37:13;;;;;;;1.20;0.50;;;11.40;99.90;;;;;;4897055;29;20519;-78
2022/09/16 01:40:02;;;;;;;1.10;0.65;;;11.40;99.90;;;;;;4898296;29;20040;-78
2022/09/16 01:42:38;;;;;;;0.77;0.50;;;11.40;99.90;;;;;;4899186;29;20048;-78
2022/09/16 01:45:37;;;;;;;0.77;0.55;;;11.40;99.90;;;;;;4896711;29;20498;-78
2022/09/16 01:48:16;;;;;;;2.38;0.63;;;11.40;99.90;;;;;;4908981;29;20404;-78
2022/09/16 01:51:11;;;;;;;1.48;0.60;;;11.40;99.90;;;;;;4898896;29;20044;-78
2022/09/16 01:53:49;;;;;;;2.83;0.40;;;11.40;99.90;;;;;;4926635;29;20055;-78
2022/09/16 01:56:36;;;;;;;2.30;0.70;;;11.40;99.90;;;;;;4898601;29;20055;-78
2022/09/16 01:59:10;;;;;;;1.42;0.60;;;11.40;99.90;;;;;;4898627;29;20040;-78
2022/09/16 02:01:55;;;;;;;1.75;0.50;;;11.40;99.90;;;;;;4898753;29;20047;-78
2022/09/16 02:04:25;;;;;;;2.17;0.50;;;11.30;99.90;;;;;;4903493;29;20503;-78
2022/09/16 02:06:55;;;;;;;0.98;0.57;;;11.30;99.90;;;;;;4922293;29;20048;-78
2022/09/16 02:09:30;;;;;;;0.60;0.60;;;11.30;99.90;;;;;;4898764;29;20535;-78
2022/09/16 02:12:04;;;;;;;0.50;0.50;;;11.30;99.90;;;;;;4898653;29;20127;-78
2022/09/16 02:14:33;;;;;;;1.08;0.50;;;11.30;99.90;;;;;;4905228;29;20047;-77
2022/09/16 02:17:11;;;;;;;1.48;0.60;;;11.30;99.90;;;;;;4923648;29;20483;-78
2022/09/16 02:19:40;;;;;;;1.65;0.52;;;11.30;99.90;;;;;;4917661;29;20493;-77
2022/09/16 02:22:15;;;;;;;2.15;0.47;;;11.30;99.90;;;;;;4932912;29;20039;-78
2022/09/16 02:24:45;;;;;;;1.95;0.70;;;11.30;99.90;;;;;;4920408;29;20071;-78
2022/09/16 02:27:16;;;;;;;2.35;0.55;;;11.30;99.90;;;;;;4925862;29;20098;-77
2022/09/16 02:29:55;;;;;;;1.60;0.52;;;11.30;99.90;;;;;;4898382;29;20036;-78
2022/09/16 02:32:26;;;;;;;2.35;0.60;;;11.40;99.90;;;;;;4914140;29;20044;-78
2022/09/16 02:34:53;;;;;;;1.02;0.40;;;11.30;99.90;;;;;;4893618;29;20388;-78
2022/09/16 02:37:29;;;;;;;1.80;0.70;;;11.30;99.90;;;;;;4899015;29;20071;-78
2022/09/16 02:40:01;;;;;;;1.73;0.70;;;11.30;99.90;;;;;;4914093;29;20044;-78
2022/09/16 02:42:27;;;;;;;1.63;0.80;;;11.30;99.90;;;;;;4898195;29;20052;-78
2022/09/16 02:44:54;;;;;;;2.00;0.65;;;11.20;99.90;;;;;;4899671;29;20122;-78
2022/09/16 02:47:22;;;;;;;1.63;0.80;;;11.20;99.90;;;;;;4918038;29;20503;-77
2022/09/16 02:50:22;;;;;;;2.47;0.70;;;11.30;99.90;;;;;;4898520;29;20040;-77
2022/09/16 02:53:00;;;;;;;1.55;0.63;;;11.20;99.90;;;;;;4898935;29;20403;-77
2022/09/16 02:55:44;;;;;;;0.77;0.75;;;11.20;99.90;;;;;;4891587;29;20526;-78
2022/09/16 02:58:10;;;;;;;0.70;0.70;;;11.10;99.90;;;;;;4916330;29;20055;-78
2022/09/16 03:00:45;;;;;;;0.90;0.63;;;11.10;99.90;;;;;;4917187;29;20047;-78
2022/09/16 03:03:11;;;;;;;1.23;0.90;;;11.00;99.90;;;;;;4933016;29;20047;-77
2022/09/16 03:06:09;;;;;;;2.78;0.60;;;10.90;99.90;;;;;;4915983;29;20099;-77
2022/09/16 03:08:35;;;;;;;0.75;0.60;;;10.90;99.90;;;;;;4887671;29;20114;-77
2022/09/16 03:11:25;;;;;;;1.05;0.90;;;10.80;99.90;;;;;;4932722;29;20118;-78
2022/09/16 03:14:09;;;;;;;2.22;0.93;;;10.70;99.90;;;;;;4924112;29;20122;-77
2022/09/16 03:16:51;;;;;;;1.50;0.80;;;10.70;99.90;;;;;;4917387;29;20527;-77
2022/09/16 03:19:34;;;;;;;3.55;1.42;;;10.60;99.90;;;;;;4901527;29;20055;-77
2022/09/16 03:22:29;;;;;;;1.13;0.63;;;10.50;99.90;;;;;;4917226;29;20051;-78
2022/09/16 03:25:05;;;;;;;0.95;0.85;;;10.50;99.90;;;;;;4921601;29;20054;-78
2022/09/16 03:27:38;;;;;;;1.65;0.90;;;10.50;99.90;;;;;;4904457;29;20050;-77
2022/09/16 03:30:09;;;;;;;2.88;0.80;;;10.50;99.90;;;;;;4916347;29;20048;-77
2022/09/16 03:32:43;;;;;;;1.33;1.00;;;10.50;99.90;;;;;;4899307;29;20048;-77
2022/09/16 03:35:21;;;;;;;1.20;1.00;;;10.50;99.90;;;;;;4917014;29;20514;-78
2022/09/16 03:37:48;;;;;;;2.33;1.23;;;10.50;99.90;;;;;;4895596;29;20586;-78
2022/09/16 03:40:18;;;;;;;1.45;1.02;;;10.50;99.90;;;;;;4900184;29;20507;-78
2022/09/16 03:42:44;;;;;;;1.20;1.00;;;10.50;99.90;;;;;;4918561;29;20086;-78
2022/09/16 03:45:15;;;;;;;1.25;1.08;;;10.50;99.90;;;;;;4924505;29;20063;-78
2022/09/16 03:47:41;;;;;;;1.60;1.08;;;10.40;99.90;;;;;;4902612;29;20044;-78
2022/09/16 03:50:07;;;;;;;3.03;1.10;;;10.40;99.90;;;;;;4901153;29;20040;-78
2022/09/16 03:52:33;;;;;;;1.73;1.05;;;10.40;99.90;;;;;;4901245;29;20051;-78
2022/09/16 03:54:59;;;;;;;1.20;1.10;;;10.40;99.90;;;;;;4905068;29;20039;-77
2022/09/16 03:57:26;;;;;;;0.80;0.80;;;10.30;99.90;;;;;;4904479;29;20443;-77
2022/09/16 03:59:52;;;;;;;1.00;0.80;;;10.30;99.90;;;;;;4916647;29;20051;-77
2022/09/16 04:02:18;;;;;;;2.03;1.38;;;10.30;99.90;;;;;;4900688;29;20410;-77
2022/09/16 04:04:44;;;;;;;2.35;1.02;;;10.30;99.90;;;;;;4900849;29;20499;-78
2022/09/16 04:07:09;;;;;;;1.52;1.10;;;10.30;99.90;;;;;;4896064;29;20541;-78
2022/09/16 04:09:36;;;;;;;1.70;1.00;;;10.30;99.90;;;;;;4915361;29;20083;-78
2022/09/16 04:12:02;;;;;;;1.10;1.00;;;10.30;99.90;;;;;;4913302;29;20037;-78
2022/09/16 04:14:28;;;;;;;4.30;1.10;;;10.30;99.90;;;;;;4906326;29;20048;-78
2022/09/16 04:16:54;;;;;;;1.83;1.20;;;10.30;99.90;;;;;;4911359;29;20050;-78
2022/09/16 04:19:20;;;;;;;2.85;1.08;;;10.30;99.90;;;;;;4919451;29;20043;-77
2022/09/16 04:21:45;;;;;;;1.38;0.95;;;10.30;99.90;;;;;;4919451;29;20434;-78
2022/09/16 04:24:12;;;;;;;1.23;0.77;;;10.40;99.90;;;;;;4897751;29;20056;-78
2022/09/16 04:26:37;;;;;;;1.77;0.85;;;10.30;99.90;;;;;;4898667;29;20036;-78
2022/09/16 04:29:03;;;;;;;1.42;1.20;;;10.30;99.90;;;;;;4916053;29;20372;-78
2022/09/16 04:31:28;;;;;;;1.55;1.00;;;10.30;99.90;;;;;;4884716;29;20068;-77
2022/09/16 04:33:54;;;;;;;1.98;1.02;;;10.30;99.90;;;;;;4915374;29;20047;-77
2022/09/16 04:36:20;;;;;;;2.45;1.10;;;10.30;99.90;;;;;;4897681;29;20048;-77
2022/09/16 04:38:47;;;;;;;1.67;0.90;;;10.20;99.90;;;;;;4908560;29;20087;-77
2022/09/16 04:41:16;;;;;;;1.60;0.98;;;10.20;99.90;;;;;;4900121;29;20055;-77
2022/09/16 04:43:42;;;;;;;1.10;0.80;;;10.10;99.90;;;;;;4900308;29;20587;-77
2022/09/16 04:46:08;;;;;;;2.03;0.85;;;10.10;99.90;;;;;;4900656;29;20119;-78
2022/09/16 04:48:34;;;;;;;3.92;0.90;;;10.10;99.90;;;;;;4926481;29;20036;-77
2022/09/16 04:51:09;;;;;;;1.25;0.73;;;10.10;99.90;;;;;;4924920;29;20036;-78
2022/09/16 04:53:36;;;;;;;1.38;1.00;;;10.10;99.90;;;;;;4899676;29;20040;-78
2022/09/16 04:56:07;;;;;;;1.85;0.90;;;10.10;99.90;;;;;;4899234;29;20054;-78
2022/09/16 04:58:33;;;;;;;2.10;1.05;;;10.00;99.90;;;;;;4912903;29;20095;-78
2022/09/16 05:01:11;;;;;;;2.00;1.00;;;10.00;99.90;;;;;;4903951;29;20381;-78
2022/09/16 05:03:43;;;;;;;2.47;0.80;;;10.00;99.90;;;;;;4893978;29;20040;-78
2022/09/16 05:06:12;;;;;;;2.30;0.90;;;10.00;99.90;;;;;;4910168;29;20090;-78
2022/09/16 05:08:39;;;;;;;2.08;1.15;;;10.00;99.90;;;;;;4901188;29;20447;-78
2022/09/16 05:11:07;;;;;;;1.27;0.90;;;10.00;99.90;;;;;;4903109;29;20035;-78
2022/09/16 05:13:33;;;;;;;2.47;0.95;;;10.00;99.90;;;;;;4916968;29;20586;-77
2022/09/16 05:16:07;;;;;;;2.38;1.20;;;10.00;99.90;;;;;;4926208;29;20122;-78
2022/09/16 05:18:34;;;;;;;2.88;1.20;;;10.00;99.90;;;;;;4934122;29;20047;-78
2022/09/16 05:21:00;;;;;;;2.83;1.15;;;10.10;99.90;;;;;;4918294;29;20044;-78
2022/09/16 05:23:26;;;;;;;0.98;0.90;;;10.00;99.90;;;;;;4918426;29;20528;-78
2022/09/16 05:25:52;;;;;;;1.42;1.10;;;10.10;99.90;;;;;;4916118;29;20054;-78
2022/09/16 05:28:18;;;;;;;2.45;0.85;;;10.10;99.90;;;;;;4904097;29;20040;-78
2022/09/16 05:30:43;;;;;;;2.70;0.90;;;10.00;99.90;;;;;;4899282;29;20040;-78
2022/09/16 05:33:09;;;;;;;1.65;0.80;;;10.10;99.90;;;;;;4903158;29;20126;-77
2022/09/16 05:35:35;;;;;;;2.80;0.80;;;10.10;99.90;;;;;;4925031;29;20111;-78
2022/09/16 05:38:00;;;;;;;2.38;0.77;;;10.10;99.90;;;;;;4901268;29;20051;-78
2022/09/16 05:40:26;;;;;;;2.05;0.70;;;10.00;99.90;;;;;;4933750;29;20039;-78
2022/09/16 05:42:52;;;;;;;2.20;0.80;;;10.00;99.90;;;;;;4907505;29;20055;-78
2022/09/16 05:45:18;;;;;;;0.93;0.50;;;10.00;99.90;;;;;;4892770;29;20040;-78
2022/09/16 05:47:47;;;;;;;1.90;0.70;;;9.90;99.90;;;;;;4906242;29;20044;-78
2022/09/16 05:50:13;;;;;;;2.47;0.70;;;9.90;99.90;;;;;;4907710;29;20083;-78
2022/09/16 05:52:39;;;;;;;2.50;0.70;;;9.90;99.90;;;;;;4925304;29;20052;-77
2022/09/16 05:55:05;;;;;;;2.20;0.60;;;9.90;99.90;;;;;;4914591;29;20036;-77
2022/09/16 05:57:31;;;;;;;1.60;0.65;;;9.80;99.90;;;;;;4883501;29;20135;-77
2022/09/16 05:59:56;;;;;;;1.20;0.60;;;9.80;99.90;;;;;;4896868;29;20134;-78
2022/09/16 06:02:22;;;;;;;2.38;0.57;;;9.80;99.90;;;;;;4909422;29;20078;-77
2022/09/16 06:04:47;;;;;;;1.65;0.50;;;9.80;99.90;;;;;;4933311;29;20035;-76
2022/09/16 06:07:13;;;;;;;1.75;0.50;;;9.80;99.90;;;;;;4930060;29;20066;-79
2022/09/16 06:09:38;;;;;;;3.80;0.70;;;9.80;99.90;;;;;;4894322;29;20448;-78
2022/09/16 06:12:04;;;;;;;2.53;0.57;;;9.70;99.90;;;;;;4924023;29;20403;-79
2022/09/16 06:14:30;;;;;;;1.85;0.68;;;9.80;99.90;;;;;;4899761;29;20044;-78
2022/09/16 06:16:56;;;;;;;2.17;0.60;;;9.80;99.90;;;;;;4907669;29;20070;-78
2022/09/16 06:19:21;;;;;;;1.27;0.52;;;9.80;99.90;;;;;;4924147;29;20040;-78
2022/09/16 06:21:47;;;;;;;0.98;0.60;;;9.80;99.90;;;;;;4914168;29;20054;-78
2022/09/16 06:24:14;;;;;;;1.45;0.68;;;9.80;99.90;;;;;;4914191;29;20040;-78
2022/09/16 06:26:42;;;;;;;3.15;0.90;;;9.80;99.90;;;;;;4895690;29;20036;-78
2022/09/16 06:29:08;;;;;;;2.78;0.70;;;9.90;99.90;;;;;;4915515;29;20048;-78
2022/09/16 06:31:36;;;;;;;2.92;0.60;;;9.90;99.90;;;;;;4897034;29;20040;-77
2022/09/16 06:34:02;;;;;;;2.25;0.70;;;10.00;99.90;;;;;;4893672;29;20044;-78
2022/09/16 06:36:31;;;;;;;0.85;0.60;;;10.10;99.90;;;;;;4894675;29;20039;-77
2022/09/16 06:38:56;;;;;;;3.25;0.82;;;10.10;99.90;;;;;;4911107;29;20511;-77
2022/09/16 06:41:23;;;;;;;2.70;0.80;;;10.20;99.90;;;;;;4907259;29;20095;-77
2022/09/16 06:43:52;;;;;;;2.67;0.80;;;10.40;99.90;;;;;;4912764;29;20507;-76
2022/09/16 06:46:28;;;;;;;3.13;0.60;;;10.40;99.90;;;;;;4914926;29;20463;-76
2022/09/16 06:48:56;;;;;;;1.70;0.68;;;10.50;99.90;;;;;;4923437;29;20067;-76
2022/09/16 06:51:24;;;;;;;1.33;0.63;;;10.60;99.90;;;;;;4936411;29;20039;-76
2022/09/16 06:53:51;;;;;;;3.08;0.60;;;10.70;99.90;;;;;;4908831;29;20042;-76
2022/09/16 06:56:19;;;;;;;5.43;1.00;;;10.90;99.90;;;;;;4901909;29;20036;-77
2022/09/16 06:58:47;;;;;;;2.50;0.70;;;11.00;99.90;;;;;;4896529;29;20460;-76
2022/09/16 07:01:22;;;;;;;3.88;0.70;;;11.10;99.90;;;;;;4885613;29;20100;-76
2022/09/16 07:03:50;;;;;;;4.47;0.90;;;11.20;99.90;;;;;;4897266;29;20036;-76
2022/09/16 07:06:18;;;;;;;4.32;0.93;;;11.20;99.90;;;;;;4885532;29;20051;-76
2022/09/16 07:08:44;;;;;;;1.08;0.73;;;11.20;99.90;;;;;;4885222;29;20032;-77
2022/09/16 07:11:13;;;;;;;1.02;0.55;;;11.20;99.90;;;;;;4898233;29;20036;-77
2022/09/16 07:13:39;;;;;;;2.17;0.63;;;11.20;99.90;;;;;;4886620;29;20084;-78
2022/09/16 07:16:08;;;;;;;2.92;0.70;;;11.20;99.90;;;;;;4916974;29;20051;-76
2022/09/16 07:18:33;;;;;;;3.38;0.60;;;11.20;99.90;;;;;;4897028;29;20521;-77
2022/09/16 07:21:11;;;;;;;2.72;0.70;;;11.20;99.90;;;;;;4911998;29;20036;-78
2022/09/16 07:23:38;;;;;;;2.97;0.98;;;11.10;99.90;;;;;;4900286;29;20064;-78
2022/09/16 07:26:12;;;;;;;6.28;1.30;;;11.20;99.90;;;;;;4913699;29;20482;-77
2022/09/16 07:28:39;;;;;;;7.35;1.40;;;11.20;99.90;;;;;;4907821;29;20094;-77
2022/09/16 07:31:07;;;;;;;5.65;1.35;;;11.20;99.90;;;;;;4901235;29;20040;-78
2022/09/16 07:33:53;;;;;;;3.08;0.90;;;11.20;99.90;;;;;;4890586;29;20056;-77
2022/09/16 07:36:22;;;;;;;3.70;1.00;;;11.20;99.90;;;;;;4901266;29;20499;-77
2022/09/16 07:38:48;;;;;;;4.85;0.77;;;11.20;99.90;;;;;;4896204;29;20037;-77
2022/09/16 07:41:20;;;;;;;3.10;0.90;;;11.20;99.90;;;;;;4900997;29;20171;-78
2022/09/16 07:43:46;;;;;;;4.72;0.90;;;11.20;99.90;;;;;;4900780;29;20103;-77
2022/09/16 07:46:15;;;;;;;4.80;1.10;;;11.20;99.90;;;;;;4900908;29;20079;-77
2022/09/16 07:48:41;;;;;;;4.00;1.25;;;11.30;99.90;;;;;;4898943;29;20067;-77
2022/09/16 07:51:13;;;;;;;5.85;1.45;;;11.30;99.90;;;;;;4899450;29;20483;-77
2022/09/16 07:53:39;;;;;;;5.07;1.40;;;11.40;99.90;;;;;;4900420;29;20071;-76
2022/09/16 07:56:17;;;;;;;4.70;1.02;;;11.40;99.90;;;;;;4878866;29;20045;-77
2022/09/16 07:58:44;;;;;;;7.63;1.35;;;11.50;99.90;;;;;;4890688;29;20051;-76
2022/09/16 08:01:10;;;;;;;5.80;1.10;;;11.60;99.90;;;;;;4899915;29;20156;-76
2022/09/16 08:03:38;;;;;;;6.28;1.30;;;11.70;99.90;;;;;;4893625;29;20168;-76
2022/09/16 08:06:07;;;;;;;6.50;1.10;;;11.80;99.90;;;;;;4898663;29;20044;-77
2022/09/16 08:08:33;;;;;;;5.50;1.10;;;11.90;99.90;;;;;;4903754;29;20039;-77
2022/09/16 08:11:00;;;;;;;6.55;1.40;;;12.00;99.90;;;;;;4910751;29;20044;-76
2022/09/16 08:13:28;;;;;;;6.20;1.20;;;12.10;99.90;;;;;;4893419;29;20048;-77
2022/09/16 08:15:54;;;;;;;6.93;1.30;;;12.10;99.90;;;;;;4900270;29;20510;-77
2022/09/16 08:18:20;;;;;;;2.65;0.60;;;12.10;99.90;;;;;;4898572;29;20044;-77
2022/09/16 08:20:46;;;;;;;5.00;1.15;;;12.20;99.90;;;;;;4898894;29;20047;-77
2022/09/16 08:23:13;;;;;;;8.23;1.20;;;12.30;99.90;;;;;;4898997;29;20099;-77
2022/09/16 08:25:40;;;;;;;5.47;0.95;;;12.40;99.90;;;;;;4900268;29;20043;-76
2022/09/16 08:28:11;;;;;;;4.45;1.00;;;12.50;99.90;;;;;;4897589;29;20128;-77
2022/09/16 08:30:37;;;;;;;4.25;1.10;;;12.60;99.90;;;;;;4899098;29;20131;-77
2022/09/16 08:33:03;;;;;;;6.03;1.20;;;12.60;99.90;;;;;;4897772;29;20127;-77
2022/09/16 08:35:28;;;;;;;3.83;1.20;;;12.70;99.90;;;;;;4884598;29;20500;-77
2022/09/16 08:37:55;;;;;;;3.85;0.88;;;12.80;99.90;;;;;;4897476;29;20491;-81
2022/09/16 08:40:23;;;;;;;6.68;1.20;;;13.00;99.90;;;;;;4914120;29;20044;-76
2022/09/16 08:43:13;;;;;;;3.65;0.95;;;13.10;99.90;;;;;;4884231;29;20110;-77
2022/09/16 08:45:56;;;;;;;3.13;0.90;;;13.30;99.90;;;;;;4884191;29;20043;-77
2022/09/16 08:49:05;;;;;;;6.28;1.27;;;13.70;99.90;;;;;;4883610;29;20369;-79
2022/09/16 08:51:31;;;;;;;3.00;0.93;;;14.20;99.90;;;;;;4895845;29;20131;-77
2022/09/16 08:54:02;;;;;;;5.38;1.20;;;14.60;99.90;;;;;;4910098;29;20048;-77
2022/09/16 08:56:33;;;;;;;3.40;1.00;;;14.90;99.90;;;;;;4883674;29;20127;-77
2022/09/16 08:59:00;;;;;;;4.47;1.02;;;15.00;99.90;;;;;;4888438;29;20044;-78
2022/09/16 09:01:43;;;;;;;2.67;0.93;;;15.10;99.90;;;;;;4892324;29;20215;-77
2022/09/16 09:04:11;;;;;;;4.35;0.93;;;15.30;99.90;;;;;;4889157;29;20095;-80
2022/09/16 09:06:58;;;;;;;3.90;1.00;;;15.30;99.90;;;;;;4889391;29;20192;-76
2022/09/16 09:09:40;;;;;;;4.45;0.95;;;15.10;99.90;;;;;;4917311;29;20032;-75
2022/09/16 09:12:14;;;;;;;7.53;1.70;;;14.90;99.90;;;;;;4923729;29;20047;-78
2022/09/16 09:15:15;;;;;;;3.85;1.13;;;14.60;99.90;;;;;;4931668;29;20044;-76
2022/09/16 09:17:53;;;;;;;7.10;1.42;;;14.30;99.90;;;;;;4934027;29;20055;-76
2022/09/16 09:20:33;;;;;;;4.50;1.00;;;14.60;99.90;;;;;;4929971;29;20064;-77
2022/09/16 09:23:08;;;;;;;8.23;2.03;;;14.90;99.90;;;;;;4898916;29;20032;-76
2022/09/16 09:25:51;;;;;;;6.32;1.60;;;15.40;99.90;;;;;;4920775;29;20075;-76
2022/09/16 09:28:38;;;;;;;8.85;1.85;;;16.00;99.90;;;;;;4881777;29;20050;-76
2022/09/16 09:31:17;;;;;;;4.32;1.30;;;16.60;99.90;;;;;;4910210;29;20051;-77
2022/09/16 09:34:09;;;;;;;6.00;0.98;;;17.00;99.90;;;;;;4914764;29;20036;-79
2022/09/16 09:36:54;;;;;;;4.10;1.08;;;17.20;99.90;;;;;;4909469;29;20036;-76
2022/09/16 09:39:38;;;;;;;5.13;1.05;;;17.30;99.90;;;;;;4917573;29;20044;-76
2022/09/16 09:42:26;;;;;;;4.00;0.70;;;17.40;99.90;;;;;;4919564;29;20495;-76
2022/09/16 09:44:55;;;;;;;6.10;1.38;;;17.40;99.90;;;;;;4904076;29;20139;-75
2022/09/16 09:47:45;;;;;;;3.03;0.90;;;17.30;99.90;;;;;;4919766;29;20450;-75
2022/09/16 09:50:23;;;;;;;5.15;1.50;;;17.20;99.90;;;;;;4895881;29;20044;-76
2022/09/16 09:52:54;;;;;;;4.47;1.13;;;17.20;99.90;;;;;;4892225;29;20462;-75
2022/09/16 09:55:24;;;;;;;5.03;1.10;;;17.20;99.90;;;;;;4933893;29;20483;-75
2022/09/16 09:58:19;;;;;;;5.80;0.95;;;17.10;96.90;;;;;;4923333;29;20107;-75
2022/09/16 10:00:44;;;;;;;5.05;0.93;;;17.10;99.90;;;;;;4924616;29;20032;-76
2022/09/16 10:03:16;;;;;;;3.65;1.00;;;16.90;91.80;;;;;;4917463;29;20040;-76
2022/09/16 10:05:43;;;;;;;3.83;0.90;;;16.50;97.40;;;;;;4909291;29;20163;-75
2022/09/16 10:08:22;;;;;;;5.03;0.90;;;16.20;99.90;;;;;;4898969;29;20040;-76
2022/09/16 10:10:58;;;;;;;7.65;1.33;;;16.50;99.90;;;;;;4921644;29;20043;-75
2022/09/16 10:13:25;;;;;;;3.53;0.80;;;17.00;99.90;;;;;;4897806;29;20042;-75
2022/09/16 10:16:13;;;;;;;3.45;0.70;;;17.40;98.20;;;;;;4884808;29;20471;-77
2022/09/16 10:18:39;;;;;;;5.78;1.17;;;17.90;89.90;;;;;;4914290;29;20047;-76
2022/09/16 10:21:08;;;;;;;4.82;1.25;;;18.30;92.00;;;;;;4908822;29;20427;-76
2022/09/16 10:23:35;;;;;;;4.63;1.00;;;18.20;90.20;;;;;;4886350;29;20036;-76
2022/09/16 10:26:07;;;;;;;3.83;0.95;;;18.00;91.40;;;;;;4898818;29;20462;-76
2022/09/16 10:28:33;;;;;;;4.07;0.90;;;17.60;91.20;;;;;;4914394;29;20068;-76
2022/09/16 10:31:00;;;;;;;3.95;1.02;;;17.20;91.40;;;;;;4893490;29;20036;-75
2022/09/16 10:33:42;;;;;;;4.13;0.80;;;16.90;90.00;;;;;;4901545;29;20041;-76
2022/09/16 10:36:16;;;;;;;4.32;1.20;;;16.60;91.50;;;;;;4896631;29;20127;-75
2022/09/16 10:38:49;;;;;;;6.18;1.40;;;16.40;94.30;;;;;;4893519;29;20044;-76
2022/09/16 10:41:19;;;;;;;5.25;1.00;;;16.70;99.90;;;;;;4891040;29;20036;-76
2022/09/16 10:44:01;;;;;;;5.85;1.13;;;17.30;99.90;;;;;;4886709;29;20078;-77
2022/09/16 10:46:28;;;;;;;6.25;1.25;;;17.90;99.90;;;;;;4920465;29;20036;-77
2022/09/16 10:49:01;;;;;;;5.55;1.02;;;18.40;99.90;;;;;;4921225;29;20452;-77
2022/09/16 10:51:28;;;;;;;;;;;18.80;92.30;;;;;;4901931;29;20033;-76
2022/09/16 10:53:56;;;;;;;5.45;0.95;;;19.10;93.20;;;;;;4891743;29;19973;-76
2022/09/16 10:56:44;;;;;;;4.72;1.05;;;19.30;99.90;;;;;;4904573;29;20044;-77
2022/09/16 10:59:12;;;;;;;3.65;1.00;;;19.50;94.80;;;;;;4889094;29;20108;-75
2022/09/16 11:01:43;;;;;;;4.90;1.00;;;19.60;85.90;;;;;;4899635;29;20507;-76
2022/09/16 11:04:38;;;;;;;4.25;1.10;;;19.40;87.20;;;;;;4901241;29;20086;-76
2022/09/16 11:07:35;;;;;;;5.13;1.15;;;18.90;87.70;;;;;;4898453;29;20040;-76
2022/09/16 11:10:12;;;;;;;4.38;1.20;;;18.30;84.90;;;;;;4865489;29;20051;-76
2022/09/16 11:12:50;;;;;;;4.93;1.13;;;17.70;83.80;;;;;;4894406;29;20036;-76
2022/09/16 11:15:57;;;;;;;4.57;1.00;;;17.10;80.40;;;;;;4912732;29;20047;-75
2022/09/16 11:18:39;;;;;;;5.28;1.33;;;16.60;86.80;;;;;;4916220;29;20044;-75
2022/09/16 11:21:41;;;;;;;3.42;0.85;;;16.20;91.30;;;;;;4883944;29;20079;-77
2022/09/16 11:24:19;;;;;;;6.65;1.30;;;16.00;97.10;;;;;;4899700;29;20044;-76
2022/09/16 11:27:22;;;;;;;5.80;1.33;;;16.10;99.90;;;;;;4913479;29;20067;-75
2022/09/16 11:29:57;;;;;;;3.73;0.80;;;16.70;99.90;;;;;;4916950;29;20538;-75
2022/09/16 11:32:57;;;;;;;4.63;1.30;;;17.30;98.50;;;;;;4928575;29;20296;-76
2022/09/16 11:35:22;;;;;;;3.42;0.98;;;17.90;99.90;;;;;;4901101;29;20040;-75
2022/09/16 11:38:21;;;;;;;4.55;1.10;;;18.40;98.00;;;;;;4917777;29;20518;-75
2022/09/16 11:41:01;;;;;;;2.95;0.98;;;18.80;89.20;;;;;;4901329;29;20044;-75
2022/09/16 11:44:03;;;;;;;4.25;0.98;;;19.10;89.60;;;;;;4883390;29;20052;-76
2022/09/16 11:46:54;;;;;;;5.68;1.00;;;19.40;89.70;;;;;;4923696;29;20036;-75
2022/09/16 11:49:35;;;;;;;3.60;1.45;;;19.70;91.20;;;;;;4905063;29;20511;-76
2022/09/16 11:52:24;;;;;;;4.15;1.33;;;19.80;84.30;;;;;;4898257;29;20492;-76
2022/09/16 11:55:21;;;;;;;3.88;1.05;;;19.70;76.30;;;;;;4878909;29;20037;-76
2022/09/16 11:58:00;;;;;;;3.92;1.20;;;19.10;79.10;;;;;;4888405;29;20047;-75
2022/09/16 12:00:29;;;;;;;3.55;0.75;;;18.50;80.90;;;;;;4919665;29;20036;-76
2022/09/16 12:03:03;;;;;;;5.22;1.00;;;18.20;77.60;;;;;;4919972;29;20439;-76
2022/09/16 12:05:32;;;;;;;3.58;1.05;;;18.30;81.20;;;;;;4919851;29;20050;-75
2022/09/16 12:08:33;;;;;;;7.38;2.80;;;18.60;90.90;;;;;;4916276;29;20368;-75
2022/09/16 12:11:19;;;;;;;6.80;1.83;;;19.00;90.20;;;;;;4881858;29;20041;-75
2022/09/16 12:13:51;;;;;;;4.10;0.80;;;19.30;90.20;;;;;;4882363;29;20045;-75
2022/09/16 12:16:26;;;;;;;3.20;0.77;;;19.50;88.60;;;;;;4882143;29;20048;-76
2022/09/16 12:18:55;;;;;;;3.42;0.95;;;19.40;75.80;;;;;;4884745;29;20051;-76
2022/09/16 12:21:44;;;;;;;1.83;0.65;;;19.20;79.50;;;;;;4915711;29;20418;-77
2022/09/16 12:24:36;;;;;;;4.35;1.35;;;18.90;73.10;;;;;;4897407;29;20496;-75
2022/09/16 12:27:12;;;;;;;3.05;0.82;;;18.50;79.70;;;;;;4897282;29;20076;-76
2022/09/16 12:29:45;;;;;;;5.82;0.95;;;18.00;79.70;;;;;;4896893;29;20049;-75
2022/09/16 12:32:20;;;;;;;4.30;0.93;;;17.70;86.10;;;;;;4905501;29;20451;-76
2022/09/16 12:34:54;;;;;;;5.80;1.08;;;17.90;80.50;;;;;;4930261;29;20083;-75
2022/09/16 12:37:38;;;;;;;2.72;0.57;;;18.10;85.80;;;;;;4900156;29;20048;-75
2022/09/16 12:40:05;;;;;;;3.30;0.63;;;18.40;89.80;;;;;;4899598;29;20051;-76
2022/09/16 12:43:08;;;;;;;2.80;0.60;;;18.60;88.00;;;;;;4890505;29;20035;-75
2022/09/16 12:45:57;;;;;;;1.55;0.50;;;18.50;90.50;;;;;;4903379;29;20488;-75
2022/09/16 12:48:42;;;;;;;2.05;0.50;;;18.20;92.00;;;;;;4906503;29;20052;-76
2022/09/16 12:51:29;;;;;;;2.88;0.80;;;18.10;95.10;;;;;;4913814;29;20136;-76
2022/09/16 12:54:13;;;;;;;3.83;0.98;;;18.00;90.90;;;;;;4900086;29;20075;-76
2022/09/16 12:57:09;;;;;;;4.97;0.82;;;18.00;89.80;;;;;;4931424;29;20473;-76
2022/09/16 12:59:56;;;;;;;2.83;0.60;;;18.10;90.40;;;;;;4934722;29;20043;-75
2022/09/16 13:02:26;;;;;;;3.65;0.90;;;18.10;87.90;;;;;;4923871;29;20051;-81
2022/09/16 13:04:55;;;;;;;4.40;0.93;;;18.20;88.10;;;;;;4909450;29;20079;-75
2022/09/16 13:07:28;;;;;;;1.88;0.70;;;18.30;92.30;;;;;;4915708;29;20047;-75
2022/09/16 13:10:05;;;;;;;;;;;18.50;93.00;;;;;;4901744;29;20050;-76
2022/09/16 13:12:32;;;;;;;3.30;0.95;;;18.80;89.60;;;;;;4928106;29;19919;-76
2022/09/16 13:15:00;;;;;;;4.88;0.80;;;19.00;88.40;;;;;;4916995;29;20040;-76
2022/09/16 13:17:31;;;;;;;3.92;0.80;;;19.00;83.80;;;;;;4909143;29;20420;-76
2022/09/16 13:20:14;;;;;;;4.57;0.93;;;19.10;85.10;;;;;;4896194;29;20043;-77
2022/09/16 13:22:39;;;;;;;4.67;1.10;;;19.10;83.30;;;;;;4913975;29;20510;-76